Time;durP1;ratioP1;P1;durP2;ratioP2;P2;SDS_P1;SDS_P2;PMS_P1;PMS_P2;Temp;Humidity;BMP_temperature;BMP_pressure;BME280_temperature;BME280_humidity;BME280_pressure;Samples;Min_cycle;Max_cycle;Signal;HPM_P1;HPM_P2
2021/05/06 00:32:03;;;;;;;10.10;6.18;;;;;;;;;;5046089;28;20203;-52
2021/05/06 00:34:30;;;;;;;10.82;6.18;;;;;;;;;;5049704;28;20275;-56
2021/05/06 00:36:57;;;;;;;7.53;5.18;;;;;;;;;;5057786;28;20199;-56
2021/05/06 00:39:30;;;;;;;8.38;5.63;;;;;;;;;;5047237;28;20196;-55
2021/05/06 01:04:35;;;;;;;13.10;5.53;;;;;;;;;;5053546;28;20261;-49
2021/05/06 01:07:19;;;;;;;8.45;4.53;;;;;;;;;;5067446;28;20207;-55
2021/05/06 01:09:55;;;;;;;6.88;4.40;;;;;;;;;;5077776;28;20206;-55
2021/05/06 01:12:23;;;;;;;7.30;4.35;;;;;;;;;;5077794;28;20262;-57
2021/05/06 01:17:54;;;;;;;5.85;4.10;;;;;;;;;;5076406;28;20217;-57
2021/05/06 01:20:22;;;;;;;10.48;4.63;;;;;;;;;;5067573;28;20207;-58
2021/05/06 01:22:49;;;;;;;7.25;4.38;;;;;;;;;;5059450;28;20680;-59
2021/05/06 01:25:22;;;;;;;7.95;3.85;;;;;;;;;;5077483;28;20210;-57
2021/05/06 01:27:57;;;;;;;9.30;3.50;;;;;;;;;;5077064;28;20320;-53
2021/05/06 01:30:31;;;;;;;8.70;3.70;;;;;;;;;;5077256;28;20210;-54
2021/05/06 01:33:37;;;;;;;5.68;3.25;;;;;;;;;;5076731;28;20210;-52
2021/05/06 01:36:08;;;;;;;7.85;3.53;;;;;;;;;;5077202;28;20241;-54
2021/05/06 01:38:55;;;;;;;5.70;3.75;;;;;;;;;;5077189;28;20207;-51
2021/05/06 01:41:43;;;;;;;4.85;3.15;;;;;;;;;;5077427;28;20211;-56
2021/05/06 01:44:13;;;;;;;6.70;3.47;;;;;;;;;;5075421;28;20230;-55
2021/05/06 01:47:06;;;;;;;5.45;2.60;;;;;;;;;;5057009;28;20246;-51
2021/05/06 01:49:57;;;;;;;5.38;3.10;;;;;;;;;;5056974;28;20251;-55
2021/05/06 01:58:35;;;;;;;4.47;1.90;;;;;;;;;;5077789;28;20237;-51
2021/05/06 02:01:04;;;;;;;4.05;2.40;;;;;;;;;;5077224;28;20198;-54
2021/05/06 02:03:31;;;;;;;6.93;2.78;;;;;;;;;;5097434;28;20246;-53
2021/05/06 02:05:58;;;;;;;4.88;2.97;;;;;;;;;;5080227;28;20256;-55
2021/05/06 02:08:25;;;;;;;5.53;2.78;;;;;;;;;;5079647;28;20209;-53
2021/05/06 02:10:56;;;;;;;3.67;2.05;;;;;;;;;;5058353;28;20198;-56
2021/05/06 02:13:41;;;;;;;7.70;2.97;;;;;;;;;;5076559;28;20237;-53
2021/05/06 02:16:17;;;;;;;5.25;2.45;;;;;;;;;;5072801;28;20222;-58
2021/05/06 02:18:44;;;;;;;6.32;2.30;;;;;;;;;;5075862;28;20230;-54
2021/05/06 02:21:19;;;;;;;7.40;2.40;;;;;;;;;;5076203;28;20610;-58
2021/05/06 02:23:45;;;;;;;5.88;2.35;;;;;;;;;;5056826;28;20380;-53
2021/05/06 02:26:13;;;;;;;5.45;2.70;;;;;;;;;;5056048;28;20514;-56
2021/05/06 02:28:52;;;;;;;7.80;2.40;;;;;;;;;;5055778;28;20221;-56
2021/05/06 02:31:21;;;;;;;4.03;1.83;;;;;;;;;;5055928;28;20206;-49
2021/05/06 02:33:48;;;;;;;6.10;2.47;;;;;;;;;;5056169;28;20257;-53
2021/05/06 02:36:18;;;;;;;4.47;2.30;;;;;;;;;;5056778;28;20211;-55
2021/05/06 02:38:45;;;;;;;7.50;2.35;;;;;;;;;;5057124;28;20609;-56
2021/05/06 02:41:13;;;;;;;3.80;2.15;;;;;;;;;;5057459;28;20210;-46
2021/05/06 02:43:47;;;;;;;3.28;1.98;;;;;;;;;;5050159;28;20255;-57
2021/05/06 02:46:14;;;;;;;4.80;1.80;;;;;;;;;;5036379;28;20195;-51
2021/05/06 02:48:41;;;;;;;4.38;2.42;;;;;;;;;;5036009;28;20581;-54
2021/05/06 02:51:12;;;;;;;7.10;1.73;;;;;;;;;;5036241;28;20235;-53
2021/05/06 02:53:48;;;;;;;4.38;1.63;;;;;;;;;;5036289;28;20207;-51
2021/05/06 02:56:19;;;;;;;5.25;2.20;;;;;;;;;;5036034;28;20586;-52
2021/05/06 02:59:04;;;;;;;2.80;1.65;;;;;;;;;;5035632;28;20223;-49
2021/05/06 03:04:30;;;;;;;6.28;1.88;;;;;;;;;;5036086;28;20255;-50
2021/05/06 03:06:59;;;;;;;3.65;1.70;;;;;;;;;;5036423;28;20218;-48
2021/05/06 03:09:35;;;;;;;3.78;2.03;;;;;;;;;;5035602;28;20219;-51
2021/05/06 03:12:22;;;;;;;4.47;2.13;;;;;;;;;;5035605;28;20218;-53
2021/05/06 03:23:14;;;;;;;4.10;1.40;;;;;;;;;;5055656;28;20233;-56
2021/05/06 03:25:40;;;;;;;5.28;2.28;;;;;;;;;;5055729;28;20270;-56
2021/05/06 03:28:12;;;;;;;5.53;2.15;;;;;;;;;;5056281;28;20202;-47
2021/05/06 03:42:10;;;;;;;4.43;2.28;;;;;;;;;;5095447;28;20243;-51
2021/05/06 04:18:22;;;;;;;8.65;2.58;;;;;;;;;;5095940;28;20443;-49
2021/05/06 04:26:33;;;;;;;10.30;2.20;;;;;;;;;;5095720;28;20271;-52
2021/05/06 04:37:26;;;;;;;4.78;2.20;;;;;;;;;;5058706;28;20214;-55
2021/05/06 04:39:55;;;;;;;6.55;2.28;;;;;;;;;;5058163;28;20199;-53
2021/05/06 04:53:53;;;;;;;4.85;2.30;;;;;;;;;;5055941;28;20266;-50
2021/05/06 04:56:44;;;;;;;6.65;3.35;;;;;;;;;;5057347;28;20250;-58
2021/05/06 05:04:58;;;;;;;9.05;2.50;;;;;;;;;;4995283;28;20209;-52
2021/05/06 05:07:42;;;;;;;8.30;2.58;;;;;;;;;;5049971;28;20235;-56
2021/05/06 05:10:22;;;;;;;7.97;3.28;;;;;;;;;;5056678;28;20218;-52
2021/05/06 05:13:10;;;;;;;10.18;4.80;;;;;;;;;;5056902;28;20216;-55
2021/05/06 05:18:32;;;;;;;9.55;2.42;;;;;;;;;;5056904;28;20265;-61
2021/05/06 05:21:16;;;;;;;8.90;3.78;;;;;;;;;;5057032;28;20204;-50
2021/05/06 05:23:47;;;;;;;4.95;2.20;;;;;;;;;;5051214;28;20230;-54
2021/05/06 05:26:16;;;;;;;8.93;2.97;;;;;;;;;;5089573;28;20201;-57
2021/05/06 05:28:48;;;;;;;6.68;2.47;;;;;;;;;;5097103;28;20194;-56
2021/05/06 05:31:16;;;;;;;4.00;2.00;;;;;;;;;;5094387;28;20187;-52
2021/05/06 05:33:45;;;;;;;4.45;2.20;;;;;;;;;;5096500;28;20266;-52
2021/05/06 05:36:43;;;;;;;11.75;3.15;;;;;;;;;;5096431;28;20210;-58
2021/05/06 05:39:17;;;;;;;4.60;2.17;;;;;;;;;;5095222;28;20216;-55
2021/05/06 05:56:08;;;;;;;7.25;2.72;;;;;;;;;;5096508;28;20197;-58
2021/05/06 05:58:36;;;;;;;6.40;2.92;;;;;;;;;;5095839;28;20221;-60
2021/05/06 06:01:04;;;;;;;6.60;3.25;;;;;;;;;;5095530;28;20228;-57
2021/05/06 06:03:31;;;;;;;6.35;3.40;;;;;;;;;;5095629;28;20282;-59
2021/05/06 06:05:59;;;;;;;12.93;3.85;;;;;;;;;;5096006;28;20201;-50
2021/05/06 06:08:29;;;;;;;6.60;3.78;;;;;;;;;;5095363;28;20209;-56
2021/05/06 06:10:55;;;;;;;6.13;4.10;;;;;;;;;;5095313;28;20186;-57
2021/05/06 06:13:26;;;;;;;10.10;3.70;;;;;;;;;;5094632;28;20630;-53
2021/05/06 06:15:59;;;;;;;8.97;5.33;;;;;;;;;;5095807;28;20468;-59
2021/05/06 06:18:31;;;;;;;9.50;5.17;;;;;;;;;;5095566;28;20467;-55
2021/05/06 06:21:03;;;;;;;8.30;3.73;;;;;;;;;;5094997;28;20456;-50
2021/05/06 06:23:30;;;;;;;8.43;3.57;;;;;;;;;;5082555;28;20490;-55
2021/05/06 06:26:00;;;;;;;4.77;3.23;;;;;;;;;;5054776;28;20473;-51
2021/05/06 06:28:35;;;;;;;8.33;4.57;;;;;;;;;;5054153;28;20462;-59
2021/05/06 06:31:02;;;;;;;7.70;4.07;;;;;;;;;;5054453;28;20445;-60
2021/05/06 06:33:39;;;;;;;11.07;4.20;;;;;;;;;;5052932;28;20803;-57
2021/05/06 06:36:06;;;;;;;10.80;5.60;;;;;;;;;;5054032;28;20464;-53
2021/05/06 06:38:33;;;;;;;6.67;4.40;;;;;;;;;;5053273;28;20445;-54
2021/05/06 06:41:09;;;;;;;6.70;4.73;;;;;;;;;;5054245;28;20477;-59
2021/05/06 06:43:38;;;;;;;7.07;4.10;;;;;;;;;;5054431;28;20484;-50
2021/05/06 06:46:05;;;;;;;6.10;3.60;;;;;;;;;;5052437;28;20466;-56
2021/05/06 06:49:00;;;;;;;7.60;3.90;;;;;;;;;;5053793;28;20458;-55
2021/05/06 06:51:27;;;;;;;5.83;4.13;;;;;;;;;;5054019;28;20534;-55
2021/05/06 06:53:55;;;;;;;15.37;4.43;;;;;;;;;;5053817;28;20442;-57
2021/05/06 06:56:23;;;;;;;8.77;3.80;;;;;;;;;;5053184;28;20442;-58
2021/05/06 06:58:52;;;;;;;8.60;3.30;;;;;;;;;;5053170;28;20446;-57
2021/05/06 07:01:28;;;;;;;7.17;4.40;;;;;;;;;;5053384;28;20430;-58
2021/05/06 07:03:55;;;;;;;4.60;3.30;;;;;;;;;;5053101;28;20485;-58
2021/05/06 07:06:22;;;;;;;4.67;3.17;;;;;;;;;;5053231;28;20450;-58
2021/05/06 07:08:50;;;;;;;7.77;3.80;;;;;;;;;;5053294;28;20481;-60
2021/05/06 07:11:17;;;;;;;8.60;3.37;;;;;;;;;;5052978;28;20561;-52
2021/05/06 07:13:54;;;;;;;6.80;3.13;;;;;;;;;;5053689;28;20443;-51
2021/05/06 07:16:21;;;;;;;7.87;4.00;;;;;;;;;;5052408;28;20442;-60
2021/05/06 07:18:52;;;;;;;5.70;3.00;;;;;;;;;;5052380;28;20462;-51
2021/05/06 07:21:34;;;;;;;7.50;3.27;;;;;;;;;;5054586;28;20521;-53
2021/05/06 07:24:01;;;;;;;6.90;3.90;;;;;;;;;;5062323;28;20493;-55
2021/05/06 07:26:32;;;;;;;8.53;2.97;;;;;;;;;;5080814;28;20515;-58
2021/05/06 07:29:00;;;;;;;5.80;3.10;;;;;;;;;;5092431;28;20448;-54
2021/05/06 07:31:27;;;;;;;5.93;3.00;;;;;;;;;;5092742;28;20460;-59
2021/05/06 07:33:54;;;;;;;6.60;3.00;;;;;;;;;;5089686;28;20448;-52
2021/05/06 07:36:29;;;;;;;6.07;3.10;;;;;;;;;;5073405;28;20459;-58
2021/05/06 07:38:55;;;;;;;7.60;3.80;;;;;;;;;;5073453;28;20444;-56
2021/05/06 07:41:26;;;;;;;6.40;3.43;;;;;;;;;;5072754;28;20462;-56
2021/05/06 07:43:53;;;;;;;8.50;4.50;;;;;;;;;;5072550;28;20530;-54
2021/05/06 07:46:21;;;;;;;7.90;3.40;;;;;;;;;;5073008;28;20432;-58
2021/05/06 07:48:48;;;;;;;5.13;2.83;;;;;;;;;;5072707;28;20464;-51
2021/05/06 07:51:27;;;;;;;15.70;3.00;;;;;;;;;;5072442;28;20457;-53
2021/05/06 07:53:56;;;;;;;6.87;2.57;;;;;;;;;;5072372;28;20449;-53
2021/05/06 07:56:25;;;;;;;8.00;2.10;;;;;;;;;;5071309;28;20487;-57
2021/05/06 07:59:06;;;;;;;5.53;2.10;;;;;;;;;;5070861;28;20438;-59
2021/05/06 08:01:34;;;;;;;11.03;2.80;;;;;;;;;;5067096;28;20445;-58
2021/05/06 08:04:02;;;;;;;9.60;2.63;;;;;;;;;;5055892;28;20481;-59
2021/05/06 08:06:40;;;;;;;4.80;2.43;;;;;;;;;;5056131;28;20788;-60
2021/05/06 08:09:07;;;;;;;6.90;2.93;;;;;;;;;;5056842;28;20453;-54
2021/05/06 08:11:34;;;;;;;4.80;1.90;;;;;;;;;;5069149;28;20456;-58
2021/05/06 08:14:04;;;;;;;6.57;2.93;;;;;;;;;;5076298;28;20481;-51
2021/05/06 08:16:31;;;;;;;13.50;3.63;;;;;;;;;;5075512;28;20477;-55
2021/05/06 08:18:58;;;;;;;5.13;2.20;;;;;;;;;;5076784;28;20544;-52
2021/05/06 08:21:38;;;;;;;5.80;2.50;;;;;;;;;;5076549;28;20461;-53
2021/05/06 08:24:12;;;;;;;4.70;2.13;;;;;;;;;;5076006;28;20798;-52
2021/05/06 08:26:39;;;;;;;6.20;3.23;;;;;;;;;;5076611;28;20498;-59
2021/05/06 08:29:14;;;;;;;4.27;2.10;;;;;;;;;;5076595;28;20541;-56
2021/05/06 08:31:41;;;;;;;3.67;2.27;;;;;;;;;;5072424;28;20456;-60
2021/05/06 08:34:09;;;;;;;4.87;2.20;;;;;;;;;;5076240;28;20448;-51
2021/05/06 08:36:37;;;;;;;3.87;2.10;;;;;;;;;;5076280;28;20437;-52
2021/05/06 08:39:08;;;;;;;4.73;1.73;;;;;;;;;;5076440;28;20441;-57
2021/05/06 08:41:35;;;;;;;5.60;2.13;;;;;;;;;;5076323;28;20453;-54
2021/05/06 08:44:05;;;;;;;4.87;2.63;;;;;;;;;;5076351;28;20596;-49
2021/05/06 08:46:34;;;;;;;7.00;3.10;;;;;;;;;;5075924;28;20472;-53
2021/05/06 08:49:03;;;;;;;4.33;2.37;;;;;;;;;;5072077;28;20480;-54
2021/05/06 08:51:35;;;;;;;3.03;1.90;;;;;;;;;;5056792;28;20485;-53
2021/05/06 08:54:02;;;;;;;5.10;2.33;;;;;;;;;;5073565;28;20464;-60
2021/05/06 08:56:29;;;;;;;5.80;2.43;;;;;;;;;;5076736;28;20445;-54
2021/05/06 08:58:56;;;;;;;4.70;2.40;;;;;;;;;;5075783;28;20441;-60
2021/05/06 09:01:22;;;;;;;6.43;2.33;;;;;;;;;;5076021;28;20467;-60
2021/05/06 09:03:49;;;;;;;5.70;2.00;;;;;;;;;;5076134;28;20535;-59
2021/05/06 09:06:19;;;;;;;7.30;2.13;;;;;;;;;;5075515;28;20457;-60
2021/05/06 09:08:53;;;;;;;9.83;2.00;;;;;;;;;;5075908;28;20480;-56
2021/05/06 09:11:50;;;;;;;5.33;1.90;;;;;;;;;;5075286;28;20473;-55
2021/05/06 09:14:19;;;;;;;2.60;1.60;;;;;;;;;;5065741;28;20492;-60
2021/05/06 09:17:05;;;;;;;3.40;1.90;;;;;;;;;;5063521;28;20441;-57
2021/05/06 09:19:32;;;;;;;4.87;2.10;;;;;;;;;;5060183;28;20453;-57
2021/05/06 09:21:59;;;;;;;3.90;1.70;;;;;;;;;;5055603;28;20454;-54
2021/05/06 09:24:35;;;;;;;7.63;2.33;;;;;;;;;;5055691;28;20518;-53
2021/05/06 09:27:18;;;;;;;4.00;1.67;;;;;;;;;;5055143;28;20454;-55
2021/05/06 09:32:33;;;;;;;6.57;3.17;;;;;;;;;;5070929;28;20449;-54
2021/05/06 09:35:00;;;;;;;3.50;1.63;;;;;;;;;;5075629;28;20422;-51
2021/05/06 09:37:38;;;;;;;11.80;3.10;;;;;;;;;;5075314;28;20454;-56
2021/05/06 09:40:09;;;;;;;2.97;1.23;;;;;;;;;;5074715;28;20465;-54
2021/05/06 09:42:37;;;;;;;4.77;1.57;;;;;;;;;;5074198;28;20461;-54
2021/05/06 09:45:27;;;;;;;5.87;1.53;;;;;;;;;;5075376;28;20480;-54
2021/05/06 09:48:09;;;;;;;3.70;1.60;;;;;;;;;;5075946;28;20456;-62
2021/05/06 09:50:36;;;;;;;4.53;1.97;;;;;;;;;;5076954;28;20540;-53
2021/05/06 09:53:12;;;;;;;2.97;1.20;;;;;;;;;;5077168;28;20495;-57
2021/05/06 09:55:40;;;;;;;3.03;1.40;;;;;;;;;;5067566;28;20460;-56
2021/05/06 10:01:11;;;;;;;3.80;1.60;;;;;;;;;;5076586;28;20474;-54
2021/05/06 10:03:38;;;;;;;2.57;0.97;;;;;;;;;;5075489;28;20556;-59
2021/05/06 10:06:15;;;;;;;5.53;2.17;;;;;;;;;;5074559;28;20453;-56
2021/05/06 10:08:42;;;;;;;11.70;1.60;;;;;;;;;;5074129;28;20517;-58
2021/05/06 10:11:10;;;;;;;4.60;1.50;;;;;;;;;;5077213;28;20492;-51
2021/05/06 10:13:40;;;;;;;3.30;1.17;;;;;;;;;;5090639;28;20429;-52
2021/05/06 10:16:08;;;;;;;7.60;2.00;;;;;;;;;;5085290;28;20448;-57
2021/05/06 10:18:38;;;;;;;2.90;1.10;;;;;;;;;;5088554;28;20830;-56
2021/05/06 10:21:10;;;;;;;4.70;1.80;;;;;;;;;;5073221;28;20457;-54
2021/05/06 10:23:38;;;;;;;4.97;1.70;;;;;;;;;;5054660;28;20477;-54
2021/05/06 10:26:05;;;;;;;10.43;2.10;;;;;;;;;;5054558;28;20461;-60
2021/05/06 10:28:46;;;;;;;3.80;1.30;;;;;;;;;;5065643;28;21252;-53
2021/05/06 10:31:12;;;;;;;2.97;1.30;;;;;;;;;;5042580;28;20453;-54
2021/05/06 10:33:53;;;;;;;5.00;1.10;;;;;;;;;;5062489;28;20452;-58
2021/05/06 10:36:27;;;;;;;7.57;2.33;;;;;;;;;;5067153;28;20477;-56
2021/05/06 10:38:55;;;;;;;3.57;1.30;;;;;;;;;;5067421;28;20481;-58
2021/05/06 10:41:30;;;;;;;4.63;1.50;;;;;;;;;;5054470;28;20450;-56
2021/05/06 10:44:15;;;;;;;4.10;1.50;;;;;;;;;;5054739;28;20548;-51
2021/05/06 10:46:59;;;;;;;3.40;1.00;;;;;;;;;;5039626;28;20442;-59
2021/05/06 10:49:27;;;;;;;4.37;1.50;;;;;;;;;;5055335;28;20457;-58
2021/05/06 10:52:17;;;;;;;3.80;2.30;;;;;;;;;;5054570;28;20445;-56
2021/05/06 10:54:55;;;;;;;2.30;1.10;;;;;;;;;;5033308;28;20465;-59
2021/05/06 10:57:33;;;;;;;3.97;1.80;;;;;;;;;;5048337;28;20454;-56
2021/05/06 11:00:01;;;;;;;2.70;1.23;;;;;;;;;;5067935;28;20576;-54
2021/05/06 11:02:48;;;;;;;2.90;1.30;;;;;;;;;;5053597;28;20461;-54
2021/05/06 11:05:16;;;;;;;3.90;1.77;;;;;;;;;;5053582;28;20441;-54
2021/05/06 11:07:43;;;;;;;3.40;1.50;;;;;;;;;;5052900;28;20497;-59
2021/05/06 11:15:41;;;;;;;3.73;1.17;;;;;;;;;;5056361;28;20497;-54
2021/05/06 11:18:09;;;;;;;5.30;1.83;;;;;;;;;;5041470;28;20254;-48
2021/05/06 11:20:57;;;;;;;4.00;1.63;;;;;;;;;;5053726;28;20450;-59
2021/05/06 11:23:35;;;;;;;5.30;1.90;;;;;;;;;;5051756;28;20490;-57
2021/05/06 11:26:04;;;;;;;2.90;1.20;;;;;;;;;;5051449;28;20510;-51
2021/05/06 11:28:51;;;;;;;4.67;1.40;;;;;;;;;;5044761;28;20461;-57
2021/05/06 11:31:40;;;;;;;2.60;1.03;;;;;;;;;;5043103;28;20892;-57
2021/05/06 11:34:22;;;;;;;4.10;1.87;;;;;;;;;;5060232;28;20679;-53
2021/05/06 11:36:49;;;;;;;4.53;1.50;;;;;;;;;;5041393;28;20493;-53
2021/05/06 11:39:19;;;;;;;3.20;1.57;;;;;;;;;;5054001;28;20446;-50
2021/05/06 11:45:08;;;;;;;4.10;1.87;;;;;;;;;;5044570;28;20550;-51
2021/05/06 11:47:35;;;;;;;12.53;5.10;;;;;;;;;;5039279;28;20461;-56
2021/05/06 11:50:15;;;;;;;3.00;1.23;;;;;;;;;;5054346;28;20481;-54
2021/05/06 11:52:43;;;;;;;3.27;1.50;;;;;;;;;;5051580;28;20505;-57
2021/05/06 11:55:26;;;;;;;6.90;1.43;;;;;;;;;;5050443;28;20447;-59
2021/05/06 11:57:54;;;;;;;6.80;1.53;;;;;;;;;;5052764;28;20461;-55
2021/05/06 12:00:28;;;;;;;4.17;1.70;;;;;;;;;;5049820;28;20446;-56
2021/05/06 12:03:16;;;;;;;4.50;1.63;;;;;;;;;;5048563;28;20707;-51
2021/05/06 12:05:53;;;;;;;3.87;1.50;;;;;;;;;;5053015;28;20473;-57
2021/05/06 12:08:24;;;;;;;3.37;1.33;;;;;;;;;;5053163;28;20456;-55
2021/05/06 12:10:51;;;;;;;4.53;1.50;;;;;;;;;;5071364;28;20485;-55
2021/05/06 12:13:25;;;;;;;5.27;2.07;;;;;;;;;;5067481;28;20500;-53
2021/05/06 12:16:12;;;;;;;5.67;1.90;;;;;;;;;;5053944;28;20462;-59
2021/05/06 12:18:40;;;;;;;2.77;1.40;;;;;;;;;;5051166;28;20553;-56
2021/05/06 12:21:07;;;;;;;4.60;1.83;;;;;;;;;;5053954;28;20473;-54
2021/05/06 12:23:34;;;;;;;7.10;1.93;;;;;;;;;;5053418;28;20493;-59
2021/05/06 12:26:18;;;;;;;4.00;1.83;;;;;;;;;;5054303;28;20452;-51
2021/05/06 12:28:55;;;;;;;3.33;1.53;;;;;;;;;;5053356;28;20484;-55
2021/05/06 12:31:34;;;;;;;3.00;1.37;;;;;;;;;;5053025;28;20518;-56
2021/05/06 12:34:14;;;;;;;3.57;1.50;;;;;;;;;;5053607;28;20465;-53
2021/05/06 12:36:49;;;;;;;4.60;1.90;;;;;;;;;;5034202;28;20469;-58
2021/05/06 12:39:17;;;;;;;4.80;3.03;;;;;;;;;;5054754;28;20475;-55
2021/05/06 12:41:55;;;;;;;5.90;2.77;;;;;;;;;;5052619;28;20450;-55
2021/05/06 12:44:37;;;;;;;6.10;1.90;;;;;;;;;;5052938;28;20532;-53
2021/05/06 12:47:19;;;;;;;4.00;1.40;;;;;;;;;;5041940;28;20597;-56
2021/05/06 12:49:46;;;;;;;5.53;1.50;;;;;;;;;;5055943;28;20460;-54
2021/05/06 12:52:31;;;;;;;9.10;1.80;;;;;;;;;;5057071;28;20545;-56
2021/05/06 12:55:15;;;;;;;3.77;1.50;;;;;;;;;;5056879;28;20453;-55
2021/05/06 12:57:42;;;;;;;4.40;1.70;;;;;;;;;;5042050;28;20517;-58
2021/05/06 13:00:27;;;;;;;10.07;1.40;;;;;;;;;;5048118;28;20444;-56
2021/05/06 13:03:10;;;;;;;4.53;1.63;;;;;;;;;;5056868;28;20434;-56
2021/05/06 13:05:38;;;;;;;5.17;1.40;;;;;;;;;;5059391;28;20446;-56
2021/05/06 13:08:30;;;;;;;3.57;1.67;;;;;;;;;;5056736;28;20496;-56
2021/05/06 13:11:02;;;;;;;7.73;2.23;;;;;;;;;;5056997;28;20636;-57
2021/05/06 13:13:45;;;;;;;3.00;1.20;;;;;;;;;;5056757;28;20530;-58
2021/05/06 13:16:42;;;;;;;8.13;2.40;;;;;;;;;;5053839;28;20442;-55
2021/05/06 13:19:10;;;;;;;3.47;1.40;;;;;;;;;;5011263;28;20520;-52
2021/05/06 13:24:45;;;;;;;7.57;2.30;;;;;;;;;;5057775;28;20564;-49
2021/05/06 13:27:15;;;;;;;10.03;2.37;;;;;;;;;;5035514;28;20462;-54
2021/05/06 13:29:47;;;;;;;7.40;4.17;;;;;;;;;;5037414;28;20461;-57
2021/05/06 13:32:14;;;;;;;4.90;2.20;;;;;;;;;;5029156;28;20454;-57
2021/05/06 13:35:00;;;;;;;3.10;1.50;;;;;;;;;;5037268;28;20435;-54
2021/05/06 13:40:46;;;;;;;2.83;1.33;;;;;;;;;;5044451;28;20460;-57
2021/05/06 13:43:15;;;;;;;5.50;1.60;;;;;;;;;;5055609;28;20525;-60
2021/05/06 13:45:43;;;;;;;3.90;1.50;;;;;;;;;;5047023;28;20455;-55
2021/05/06 13:48:10;;;;;;;5.53;1.80;;;;;;;;;;5045027;28;20454;-53
2021/05/06 13:50:56;;;;;;;12.40;6.10;;;;;;;;;;5056828;28;20546;-57
2021/05/06 13:53:23;;;;;;;3.63;1.67;;;;;;;;;;5056946;28;20461;-54
2021/05/06 13:55:51;;;;;;;5.57;2.13;;;;;;;;;;5041410;28;20465;-52
2021/05/06 13:58:23;;;;;;;5.10;1.57;;;;;;;;;;5054763;28;20454;-52
2021/05/06 14:00:50;;;;;;;5.33;1.47;;;;;;;;;;5054953;28;20544;-56
2021/05/06 14:03:18;;;;;;;3.97;1.40;;;;;;;;;;5057081;28;20485;-59
2021/05/06 14:06:15;;;;;;;8.17;1.90;;;;;;;;;;5042799;28;20446;-53
2021/05/06 14:08:44;;;;;;;5.67;1.70;;;;;;;;;;5058117;28;20436;-51
2021/05/06 14:11:42;;;;;;;4.83;2.30;;;;;;;;;;5048325;28;20501;-53
2021/05/06 14:14:12;;;;;;;5.50;1.43;;;;;;;;;;5048632;28;20467;-49
2021/05/06 14:16:57;;;;;;;3.67;1.47;;;;;;;;;;5056759;28;20461;-54
2021/05/06 14:19:37;;;;;;;6.07;2.40;;;;;;;;;;5057263;28;20450;-55
2021/05/06 14:22:09;;;;;;;3.80;1.47;;;;;;;;;;5047710;28;20450;-49
2021/05/06 14:24:49;;;;;;;2.83;1.43;;;;;;;;;;5049876;28;20502;-57
2021/05/06 14:27:24;;;;;;;4.33;1.90;;;;;;;;;;5055164;28;20500;-53
2021/05/06 14:30:17;;;;;;;7.03;2.67;;;;;;;;;;5049463;28;20477;-58
2021/05/06 14:32:48;;;;;;;3.83;1.70;;;;;;;;;;5051060;28;20501;-55
2021/05/06 14:35:16;;;;;;;3.40;1.60;;;;;;;;;;5053037;28;20454;-54
2021/05/06 14:37:51;;;;;;;6.10;1.50;;;;;;;;;;5056332;28;20473;-58
2021/05/06 14:40:18;;;;;;;6.77;2.03;;;;;;;;;;5054020;28;20493;-53
2021/05/06 14:42:45;;;;;;;4.00;1.50;;;;;;;;;;5054374;28;20446;-55
2021/05/06 14:45:17;;;;;;;5.37;1.73;;;;;;;;;;5056186;28;20498;-53
2021/05/06 14:47:48;;;;;;;5.00;1.93;;;;;;;;;;5061755;28;20468;-55
2021/05/06 14:50:18;;;;;;;3.93;2.10;;;;;;;;;;5050587;28;20712;-53
2021/05/06 14:52:58;;;;;;;3.10;1.67;;;;;;;;;;5052391;28;20462;-51
2021/05/06 14:58:18;;;;;;;6.00;1.90;;;;;;;;;;5051642;28;20476;-56
2021/05/06 15:00:48;;;;;;;14.67;6.70;;;;;;;;;;5056938;28;20445;-56
2021/05/06 15:03:33;;;;;;;6.37;1.80;;;;;;;;;;5056424;28;20481;-53
2021/05/06 15:06:20;;;;;;;4.70;2.00;;;;;;;;;;5056150;28;20457;-55
2021/05/06 15:08:50;;;;;;;5.00;2.20;;;;;;;;;;5051432;28;20465;-51
2021/05/06 15:11:19;;;;;;;3.47;1.20;;;;;;;;;;5055398;28;20478;-53
2021/05/06 15:16:55;;;;;;;7.63;2.00;;;;;;;;;;5054571;28;20494;-54
2021/05/06 15:19:26;;;;;;;4.60;2.70;;;;;;;;;;5052557;28;20450;-52
2021/05/06 15:21:56;;;;;;;5.40;2.67;;;;;;;;;;5067556;28;20438;-57
2021/05/06 15:24:31;;;;;;;7.57;3.20;;;;;;;;;;5055542;28;20474;-50
2021/05/06 15:27:02;;;;;;;4.43;2.40;;;;;;;;;;5055273;28;20457;-58
2021/05/06 15:29:33;;;;;;;4.87;2.23;;;;;;;;;;5056373;28;20446;-54
2021/05/06 15:32:01;;;;;;;7.83;3.60;;;;;;;;;;5056014;28;20458;-53
2021/05/06 15:34:36;;;;;;;10.43;2.30;;;;;;;;;;5060920;28;20469;-56
2021/05/06 15:37:03;;;;;;;3.03;1.70;;;;;;;;;;5055917;28;20453;-56
2021/05/06 15:39:31;;;;;;;4.43;2.50;;;;;;;;;;5052605;28;20457;-57
2021/05/06 15:42:18;;;;;;;7.07;2.30;;;;;;;;;;5052289;28;20465;-54
2021/05/06 15:44:45;;;;;;;3.60;1.70;;;;;;;;;;5051269;28;20566;-51
2021/05/06 15:47:20;;;;;;;3.50;2.00;;;;;;;;;;5055075;28;20453;-56
2021/05/06 15:49:59;;;;;;;4.70;2.50;;;;;;;;;;5055121;28;20456;-58
2021/05/06 15:56:04;;;;;;;10.03;3.50;;;;;;;;;;5049105;28;20442;-51
2021/05/06 15:58:43;;;;;;;4.77;2.83;;;;;;;;;;5053863;28;20517;-57
2021/05/06 16:01:15;;;;;;;7.43;2.23;;;;;;;;;;5053871;28;20458;-59
2021/05/06 16:03:46;;;;;;;6.20;2.80;;;;;;;;;;5041853;28;20516;-53
2021/05/06 16:06:21;;;;;;;4.70;2.43;;;;;;;;;;5048199;28;20457;-55
2021/05/06 16:08:50;;;;;;;6.93;3.10;;;;;;;;;;5054929;28;20426;-57
2021/05/06 16:11:18;;;;;;;6.63;3.03;;;;;;;;;;5055088;28;20461;-58
2021/05/06 16:13:47;;;;;;;7.70;3.10;;;;;;;;;;5041117;28;20541;-57
2021/05/06 16:16:19;;;;;;;5.10;3.20;;;;;;;;;;5041940;28;20510;-53
2021/05/06 16:18:48;;;;;;;6.30;3.50;;;;;;;;;;5050603;28;20454;-53
2021/05/06 16:21:15;;;;;;;8.47;3.30;;;;;;;;;;5054230;28;20505;-57
2021/05/06 16:24:13;;;;;;;6.00;2.80;;;;;;;;;;5056141;28;20484;-56
2021/05/06 16:26:43;;;;;;;4.33;3.20;;;;;;;;;;5057176;28;20489;-58
2021/05/06 16:29:32;;;;;;;6.10;3.63;;;;;;;;;;5058928;28;20454;-53
2021/05/06 16:32:07;;;;;;;6.07;3.03;;;;;;;;;;5041155;28;20434;-58
2021/05/06 16:34:38;;;;;;;5.53;2.90;;;;;;;;;;5058445;28;20458;-52
2021/05/06 16:37:37;;;;;;;6.70;3.30;;;;;;;;;;5037793;28;20465;-52
2021/05/06 16:40:10;;;;;;;3.97;2.30;;;;;;;;;;5050858;28;20469;-51
2021/05/06 16:43:08;;;;;;;4.23;2.93;;;;;;;;;;5028472;28;20457;-56
2021/05/06 16:48:43;;;;;;;5.77;3.80;;;;;;;;;;5058242;28;20417;-57
2021/05/06 16:51:13;;;;;;;8.50;3.50;;;;;;;;;;5053378;28;20461;-55
2021/05/06 16:53:50;;;;;;;7.37;3.60;;;;;;;;;;5058258;28;20465;-59
2021/05/06 16:56:18;;;;;;;6.30;3.20;;;;;;;;;;5058239;28;20453;-50
2021/05/06 16:58:53;;;;;;;7.23;3.77;;;;;;;;;;5058079;28;20446;-54
2021/05/06 17:01:21;;;;;;;6.43;3.50;;;;;;;;;;5057832;28;20442;-55
2021/05/06 17:04:17;;;;;;;12.00;3.07;;;;;;;;;;5057174;28;20535;-52
2021/05/06 17:06:45;;;;;;;4.63;3.07;;;;;;;;;;5056818;28;20442;-51
2021/05/06 17:09:12;;;;;;;6.00;3.43;;;;;;;;;;5058421;28;20453;-52
2021/05/06 17:11:46;;;;;;;4.70;2.93;;;;;;;;;;5058132;28;20445;-57
2021/05/06 17:14:28;;;;;;;4.90;3.20;;;;;;;;;;5058173;28;20445;-59
2021/05/06 17:17:03;;;;;;;6.60;3.30;;;;;;;;;;5055705;28;20505;-49
2021/05/06 17:19:30;;;;;;;5.93;3.70;;;;;;;;;;5058050;28;20470;-56
2021/05/06 17:22:22;;;;;;;8.87;3.03;;;;;;;;;;5063997;28;20492;-52
2021/05/06 17:25:07;;;;;;;7.00;4.00;;;;;;;;;;5057066;28;20497;-55
2021/05/06 17:27:53;;;;;;;12.37;3.70;;;;;;;;;;5057351;28;20457;-54
2021/05/06 17:30:28;;;;;;;6.93;3.43;;;;;;;;;;5053792;28;20458;-51
2021/05/06 17:32:57;;;;;;;6.10;3.50;;;;;;;;;;5045226;28;20518;-52
2021/05/06 17:35:26;;;;;;;7.23;3.33;;;;;;;;;;5052414;28;20446;-59
2021/05/06 17:38:14;;;;;;;4.37;3.40;;;;;;;;;;5056338;28;20465;-57
2021/05/06 17:40:53;;;;;;;5.53;3.50;;;;;;;;;;5052781;28;20458;-55
2021/05/06 17:43:22;;;;;;;4.80;2.80;;;;;;;;;;5056526;28;20492;-53
2021/05/06 17:45:52;;;;;;;7.03;3.67;;;;;;;;;;5042453;28;20439;-54
2021/05/06 17:48:25;;;;;;;5.50;3.27;;;;;;;;;;5055289;28;20465;-58
2021/05/06 17:50:55;;;;;;;5.43;3.30;;;;;;;;;;5042778;28;20477;-57
2021/05/06 17:53:31;;;;;;;10.97;4.33;;;;;;;;;;5057041;28;20468;-58
2021/05/06 17:56:01;;;;;;;7.97;3.90;;;;;;;;;;5055792;28;20460;-55
2021/05/06 17:58:32;;;;;;;6.90;4.13;;;;;;;;;;5038636;28;20430;-55
2021/05/06 18:01:18;;;;;;;6.33;3.50;;;;;;;;;;5051973;28;20481;-56
2021/05/06 18:04:00;;;;;;;4.77;3.20;;;;;;;;;;5048076;28;20521;-54
2021/05/06 18:06:32;;;;;;;6.70;3.23;;;;;;;;;;5052452;28;20509;-58
2021/05/06 18:09:06;;;;;;;4.80;3.23;;;;;;;;;;5055203;28;20481;-55
2021/05/06 18:11:49;;;;;;;9.03;3.40;;;;;;;;;;5054973;28;20449;-58
2021/05/06 18:14:18;;;;;;;5.33;3.10;;;;;;;;;;5055468;28;20464;-58
2021/05/06 18:16:52;;;;;;;7.07;3.97;;;;;;;;;;5055224;28;20621;-56
2021/05/06 18:19:19;;;;;;;6.03;3.87;;;;;;;;;;5055717;28;20442;-52
2021/05/06 18:22:25;;;;;;;7.27;3.80;;;;;;;;;;5057574;28;20438;-53
2021/05/06 18:27:33;;;;;;;8.57;3.97;;;;;;;;;;3310520;26;20483;-51
2021/05/06 18:30:06;;;;;;;5.40;4.03;;;;;;;;;;4997479;28;20456;-57
2021/05/06 18:32:34;;;;;;;5.73;3.47;;;;;;;;;;5016589;28;20478;-51
2021/05/06 18:35:13;;;;;;;10.37;3.57;;;;;;;;;;5015130;28;20452;-59
2021/05/06 18:37:41;;;;;;;5.97;3.53;;;;;;;;;;5034506;28;20466;-53
2021/05/06 18:40:18;;;;;;;13.43;4.80;;;;;;;;;;5032298;28;20530;-60
2021/05/06 18:42:46;;;;;;;9.07;3.67;;;;;;;;;;5028446;28;20466;-58
2021/05/06 18:45:13;;;;;;;6.00;3.43;;;;;;;;;;5034097;28;20517;-54